Hancock County-Bar Harbor Airport Bar Harbor US
ICAO: KBHB
IATA: BHB
Category: Medium
Scheduled Services: Yes

Elevation: 83 ft
TransAlt. 18000 ft.

Airport Communications:
BANGOR APP/DEP:124.5
AWOS 3:118.025
CLNC DEL:119.9
CTAF/UNICOM:123

KBHB Zoom In..

Runways:

(A) RW 04 length 5200 ft width 100 ft
---- / hdg 44

(B) RW 17 length 3253 ft width 75 ft
---- / hdg 169

(C) RW 22 length 5200 ft width 100 ft
ILS 108.30 / hdg 224

(D) RW 35 length 3253 ft width 75 ft
---- / hdg 349

Location; KBHB
Day. 25 / Time. 11.56 Zulu
* Altimeter: 30.21
* Temperature: 08° c. 46.4°f.
* Wind from: 200° Speed 08 kn.
Dewpoint: 05° c.
Visibility: 10 Statute Miles.
Clouds: Overcast 3900 ft.

KBHB 251156Z AUTO 20008KT 10SM OVC039 08/05 A3021 RMK AO2 SLP233 T00830050 10083 20061 53005 $


Wind From 200°
Speed 08 kn.

  YouTube Music Video
 
jpsmedia.com for Web Design  worldairports.se 2018   terms of use